createdAt,value
2022-12-16T00:02:06.614Z,96.36
2022-12-16T00:04:33.451Z,96.20
2022-12-16T00:07:00.348Z,96.06
2022-12-16T00:09:27.313Z,96.42
2022-12-16T00:11:54.222Z,98.63
2022-12-16T00:14:21.529Z,99.39
2022-12-16T00:16:48.665Z,99.97
2022-12-16T00:19:15.506Z,100.00
2022-12-16T00:21:42.456Z,100.00
2022-12-16T00:24:09.329Z,100.00
2022-12-16T00:26:36.203Z,100.00
2022-12-16T00:29:05.614Z,100.00
2022-12-16T00:31:32.599Z,100.00
2022-12-16T00:33:59.719Z,100.00
2022-12-16T00:36:26.616Z,100.00
2022-12-16T00:38:53.760Z,100.00
2022-12-16T00:41:20.676Z,100.00
2022-12-16T00:43:47.890Z,100.00
2022-12-16T00:46:14.902Z,100.00
2022-12-16T00:48:41.736Z,99.06
2022-12-16T00:51:08.630Z,99.31
2022-12-16T00:53:36.226Z,97.88
2022-12-16T00:56:09.350Z,97.39
2022-12-16T00:58:37.540Z,98.10
2022-12-16T01:01:08.078Z,98.44
2022-12-16T01:03:36.469Z,98.61
2022-12-16T01:06:11.526Z,99.57
2022-12-16T01:08:40.037Z,100.00
2022-12-16T01:11:10.341Z,100.00
2022-12-16T01:13:37.266Z,100.00
2022-12-16T01:16:04.441Z,100.00
2022-12-16T01:18:31.891Z,100.00
2022-12-16T01:21:06.896Z,100.00
2022-12-16T01:23:34.785Z,100.00
2022-12-16T01:26:02.735Z,100.00
2022-12-16T01:28:30.322Z,100.00
2022-12-16T01:31:01.736Z,100.00
2022-12-16T01:33:31.336Z,100.00
2022-12-16T01:36:03.648Z,100.00
2022-12-16T01:38:30.925Z,100.00
2022-12-16T01:40:58.178Z,100.00
2022-12-16T01:43:29.902Z,100.00
2022-12-16T01:46:02.233Z,100.00
2022-12-16T01:49:04.109Z,100.00
2022-12-16T01:51:35.853Z,100.00
2022-12-16T01:54:12.614Z,100.00
2022-12-16T01:56:44.846Z,100.00
2022-12-16T01:59:14.243Z,100.00
2022-12-16T02:01:41.827Z,100.00
2022-12-16T02:04:09.316Z,100.00
2022-12-16T02:06:36.157Z,100.00
2022-12-16T02:09:07.951Z,100.00
2022-12-16T02:11:43.576Z,100.00
2022-12-16T02:14:23.525Z,100.00
2022-12-16T02:17:06.400Z,99.75
2022-12-16T02:20:07.974Z,99.49
2022-12-16T02:22:43.451Z,99.49
2022-12-16T02:25:28.868Z,99.09
2022-12-16T02:28:10.162Z,98.98
2022-12-16T02:30:52.635Z,98.76
2022-12-16T02:33:46.486Z,98.51
2022-12-16T02:36:26.598Z,98.37
2022-12-16T02:39:05.388Z,97.69
2022-12-16T02:41:51.879Z,97.24
2022-12-16T02:44:20.032Z,98.20
2022-12-16T02:46:55.774Z,98.47
2022-12-16T02:49:22.509Z,100.00
2022-12-16T02:51:49.886Z,100.00
2022-12-16T02:54:18.108Z,99.90
2022-12-16T02:57:03.716Z,99.04
2022-12-16T02:59:43.657Z,98.37
2022-12-16T03:02:19.762Z,98.26
2022-12-16T03:05:02.816Z,97.64
2022-12-16T03:07:33.128Z,96.82
2022-12-16T03:10:01.741Z,95.37
2022-12-16T03:12:28.779Z,95.36
2022-12-16T03:27:26.554Z,100.00
2022-12-16T03:30:06.785Z,100.00
2022-12-16T03:33:04.914Z,100.00
2022-12-16T03:35:51.686Z,100.00
2022-12-16T03:38:21.868Z,100.00
2022-12-16T03:40:50.239Z,100.00
2022-12-16T03:43:17.452Z,100.00
2022-12-16T03:45:46.469Z,100.00
2022-12-16T03:48:14.932Z,100.00
2022-12-16T03:50:41.940Z,100.00
2022-12-16T03:53:08.982Z,100.00
2022-12-16T03:55:35.958Z,100.00
2022-12-16T03:58:02.882Z,100.00
2022-12-16T04:00:30.094Z,100.00
2022-12-16T04:02:57.227Z,100.00
2022-12-16T04:05:24.195Z,100.00
2022-12-16T04:07:51.321Z,100.00
2022-12-16T04:10:38.245Z,100.00
2022-12-16T04:13:23.837Z,100.00
2022-12-16T04:16:09.540Z,100.00
2022-12-16T04:18:54.918Z,100.00
2022-12-16T04:21:40.478Z,100.00
2022-12-16T04:24:19.363Z,100.00
2022-12-16T04:27:15.026Z,100.00
2022-12-16T04:30:01.855Z,100.00
2022-12-16T04:32:53.024Z,100.00
2022-12-16T04:35:38.813Z,100.00
2022-12-16T04:38:24.683Z,100.00
2022-12-16T04:41:10.261Z,100.00
2022-12-16T04:43:55.806Z,100.00
2022-12-16T04:46:41.307Z,100.00
2022-12-16T04:49:28.399Z,100.00
2022-12-16T04:52:13.781Z,100.00
2022-12-16T04:54:59.030Z,100.00
2022-12-16T04:57:44.667Z,100.00
2022-12-16T05:00:30.493Z,100.00
2022-12-16T05:03:16.631Z,100.00
2022-12-16T05:06:02.351Z,100.00
2022-12-16T05:08:47.778Z,100.00
2022-12-16T05:11:33.252Z,100.00
2022-12-16T05:14:18.793Z,100.00
2022-12-16T05:17:04.052Z,100.00
2022-12-16T05:19:49.736Z,100.00
2022-12-16T05:22:34.896Z,100.00
2022-12-16T05:25:20.260Z,100.00
2022-12-16T05:28:09.804Z,100.00
2022-12-16T05:30:55.507Z,100.00
2022-12-16T05:33:41.904Z,100.00
2022-12-16T05:36:28.272Z,100.00
2022-12-16T05:39:13.905Z,100.00
2022-12-16T05:41:59.477Z,100.00
2022-12-16T05:44:44.998Z,100.00
2022-12-16T05:47:30.327Z,100.00
2022-12-16T05:50:16.069Z,100.00
2022-12-16T05:53:12.679Z,100.00
2022-12-16T05:55:58.847Z,100.00
2022-12-16T05:58:44.651Z,100.00
2022-12-16T06:01:30.782Z,100.00
2022-12-16T06:04:18.048Z,100.00
2022-12-16T06:07:04.065Z,100.00
2022-12-16T06:09:54.675Z,100.00
2022-12-16T06:12:41.868Z,100.00
2022-12-16T06:15:27.842Z,100.00
2022-12-16T06:18:13.452Z,100.00
2022-12-16T06:20:59.063Z,100.00
2022-12-16T06:23:44.408Z,100.00
2022-12-16T06:26:30.479Z,100.00
2022-12-16T06:29:16.173Z,100.00
2022-12-16T06:32:01.990Z,100.00
2022-12-16T06:34:47.511Z,100.00
2022-12-16T06:37:33.004Z,99.72
2022-12-16T06:40:18.347Z,100.00
2022-12-16T06:43:03.787Z,100.00
2022-12-16T06:45:49.269Z,100.00
2022-12-16T06:48:34.531Z,99.91
2022-12-16T06:51:19.788Z,100.00
2022-12-16T06:54:05.384Z,99.86
2022-12-16T06:56:50.583Z,100.00
2022-12-16T06:59:36.239Z,100.00
2022-12-16T07:02:22.115Z,100.00
2022-12-16T07:05:07.461Z,100.00
2022-12-16T07:07:53.161Z,99.98
2022-12-16T07:10:38.876Z,100.00
2022-12-16T07:13:24.613Z,99.29
2022-12-16T07:16:10.361Z,99.66
2022-12-16T07:18:55.533Z,99.91
2022-12-16T07:21:40.973Z,99.41
2022-12-16T07:24:26.832Z,99.52
2022-12-16T07:27:12.755Z,99.47
2022-12-16T07:30:11.637Z,99.85
2022-12-16T07:32:57.334Z,99.09
2022-12-16T07:35:42.911Z,98.49
2022-12-16T07:38:28.478Z,98.70
2022-12-16T07:41:14.093Z,98.55
2022-12-16T07:43:59.783Z,98.26
2022-12-16T07:46:45.500Z,97.61
2022-12-16T07:49:31.252Z,98.00
2022-12-16T07:52:16.822Z,97.45
2022-12-16T07:55:02.712Z,97.34
2022-12-16T07:57:48.166Z,97.07
2022-12-16T08:00:47.453Z,96.25
2022-12-16T08:03:33.319Z,96.24
2022-12-16T08:06:19.017Z,95.92
2022-12-16T08:09:04.325Z,95.19
2022-12-16T08:11:49.860Z,95.39
2022-12-16T08:14:55.107Z,95.64
2022-12-16T08:17:41.568Z,96.65
2022-12-16T08:20:27.329Z,96.41
2022-12-16T08:23:12.797Z,95.49
2022-12-16T08:25:58.429Z,95.12
2022-12-16T08:28:43.811Z,94.03
2022-12-16T08:31:29.592Z,95.19
2022-12-16T08:34:15.142Z,95.67
2022-12-16T08:37:00.734Z,95.44
2022-12-16T08:39:51.321Z,96.17
2022-12-16T08:42:49.991Z,96.40
2022-12-16T08:45:35.846Z,97.13
2022-12-16T08:48:21.603Z,97.44
2022-12-16T08:51:06.919Z,97.56
2022-12-16T08:53:52.887Z,98.20
2022-12-16T08:56:38.432Z,97.96
2022-12-16T08:59:23.934Z,98.13
2022-12-16T09:02:10.701Z,97.23
2022-12-16T09:04:56.274Z,97.61
2022-12-16T09:07:41.861Z,98.27
2022-12-16T09:10:27.003Z,98.11
2022-12-16T09:13:12.468Z,97.98
2022-12-16T09:15:58.144Z,97.41
2022-12-16T09:18:50.999Z,98.25
2022-12-16T09:21:36.368Z,97.46
2022-12-16T09:24:22.044Z,96.97
2022-12-16T09:27:07.625Z,97.09
2022-12-16T09:29:54.205Z,95.90
2022-12-16T09:32:41.271Z,95.71
2022-12-16T09:35:27.074Z,94.49
2022-12-16T09:38:12.699Z,94.00
2022-12-16T09:40:59.908Z,93.67
2022-12-16T09:44:12.824Z,92.43
2022-12-16T09:47:10.414Z,91.67
2022-12-16T09:50:01.610Z,92.64
2022-12-16T09:52:48.968Z,91.99
2022-12-16T09:55:55.150Z,93.43
2022-12-16T09:58:43.827Z,91.02
2022-12-16T10:01:31.759Z,85.96
2022-12-16T10:04:17.650Z,84.69
2022-12-16T10:07:07.616Z,86.01
2022-12-16T10:10:08.480Z,87.21
2022-12-16T10:13:02.847Z,89.07
2022-12-16T10:15:51.257Z,89.77
2022-12-16T10:18:55.860Z,88.80
2022-12-16T10:21:49.130Z,90.26
2022-12-16T10:24:37.281Z,89.12
2022-12-16T10:27:35.340Z,89.31
2022-12-16T10:30:21.700Z,88.64
2022-12-16T10:33:09.086Z,88.52
2022-12-16T10:36:02.854Z,84.90
2022-12-16T10:38:59.027Z,81.00
2022-12-16T10:41:50.844Z,74.28
2022-12-16T10:44:41.853Z,73.37
2022-12-16T10:47:29.300Z,75.42
2022-12-16T10:50:15.849Z,77.63
2022-12-16T10:53:12.755Z,71.71
2022-12-16T10:56:35.039Z,68.81
2022-12-16T10:59:25.440Z,67.69
2022-12-16T11:02:36.362Z,66.03
2022-12-16T11:05:41.688Z,60.10
2022-12-16T11:08:52.123Z,54.87
2022-12-16T11:11:44.895Z,51.93
2022-12-16T11:14:59.475Z,48.75
2022-12-16T11:17:52.628Z,48.77
2022-12-16T11:20:44.696Z,47.04
2022-12-16T11:23:36.758Z,45.98
2022-12-16T11:26:29.383Z,44.06
2022-12-16T11:29:31.031Z,41.87
2022-12-16T11:32:25.364Z,43.02
2022-12-16T11:35:17.715Z,42.66
2022-12-16T11:38:04.700Z,39.59
2022-12-16T11:40:50.463Z,37.74
2022-12-16T11:43:38.926Z,37.67
2022-12-16T11:46:30.616Z,38.42
2022-12-16T11:49:25.773Z,43.08
2022-12-16T11:52:36.505Z,42.97
2022-12-16T11:56:03.662Z,43.23
2022-12-16T11:58:58.773Z,43.90
2022-12-16T12:01:50.032Z,41.99
2022-12-16T12:04:37.137Z,44.42
2022-12-16T12:07:44.940Z,43.05
2022-12-16T12:10:58.894Z,43.97
2022-12-16T12:14:05.444Z,45.50
2022-12-16T12:17:04.641Z,43.51
2022-12-16T12:20:10.883Z,41.64
2022-12-16T12:22:58.324Z,41.25
2022-12-16T12:25:57.176Z,40.12
2022-12-16T12:28:58.648Z,39.36
2022-12-16T12:32:12.327Z,40.51
2022-12-16T12:35:29.451Z,45.43
2022-12-16T12:38:27.896Z,48.91
2022-12-16T12:41:21.394Z,51.88
2022-12-16T12:44:36.938Z,57.14
2022-12-16T12:47:35.459Z,62.90
2022-12-16T12:50:31.951Z,64.10
2022-12-16T12:53:52.464Z,70.03
2022-12-16T12:56:50.227Z,72.04
2022-12-16T12:59:50.567Z,73.74
2022-12-16T13:02:42.909Z,75.24
2022-12-16T13:05:34.070Z,76.28
2022-12-16T13:09:04.628Z,76.23
2022-12-16T13:11:50.053Z,76.55
2022-12-16T13:14:50.520Z,78.68
2022-12-16T13:17:41.672Z,79.41
2022-12-16T13:20:51.925Z,78.77
2022-12-16T13:23:46.567Z,78.81
2022-12-16T13:26:34.696Z,79.49
2022-12-16T13:29:38.106Z,79.09
2022-12-16T13:32:36.251Z,78.57
2022-12-16T13:35:36.251Z,79.12
2022-12-16T13:38:36.863Z,79.23
2022-12-16T13:41:57.207Z,80.41
2022-12-16T13:45:00.861Z,80.84
2022-12-16T13:47:50.842Z,82.01
2022-12-16T13:51:00.243Z,82.85
2022-12-16T13:53:59.351Z,83.35
2022-12-16T13:56:52.544Z,84.20
2022-12-16T14:00:03.184Z,84.97
2022-12-16T14:03:01.219Z,86.07
2022-12-16T14:05:50.022Z,86.90
2022-12-16T14:08:42.577Z,87.72
2022-12-16T14:12:14.180Z,87.80
2022-12-16T14:15:07.239Z,88.10
2022-12-16T14:18:00.883Z,88.38
2022-12-16T14:20:53.794Z,88.63
2022-12-16T14:24:03.579Z,89.24
2022-12-16T14:26:49.515Z,88.95
2022-12-16T14:29:46.788Z,88.76
2022-12-16T14:32:45.197Z,88.20
2022-12-16T14:35:34.291Z,88.08
2022-12-16T14:38:53.926Z,88.59
2022-12-16T14:41:44.141Z,88.75
2022-12-16T14:44:56.047Z,89.46
2022-12-16T14:47:42.891Z,89.55
2022-12-16T14:50:45.663Z,89.37
2022-12-16T14:53:43.480Z,88.90
2022-12-16T14:56:36.575Z,88.96
2022-12-16T14:59:36.286Z,88.43
2022-12-16T15:02:46.070Z,88.40
2022-12-16T15:05:32.495Z,88.32
2022-12-16T15:08:19.047Z,88.60
2022-12-16T15:11:05.275Z,89.61
2022-12-16T15:13:54.311Z,89.33
2022-12-16T15:29:54.088Z,98.20
2022-12-16T15:32:45.576Z,97.97
2022-12-16T15:36:15.388Z,97.29
2022-12-16T15:39:00.651Z,97.13
2022-12-16T15:41:50.569Z,96.32
2022-12-16T15:44:41.906Z,96.21
2022-12-16T15:47:55.491Z,95.34
2022-12-16T15:50:45.488Z,94.71
2022-12-16T15:53:46.717Z,95.01
2022-12-16T15:56:41.326Z,94.80
2022-12-16T15:59:34.384Z,94.95
2022-12-16T16:02:26.686Z,94.48
2022-12-16T16:05:12.728Z,94.05
2022-12-16T16:08:03.478Z,94.29
2022-12-16T16:10:49.874Z,94.28
2022-12-16T16:13:35.746Z,94.02
2022-12-16T16:16:22.213Z,93.50
2022-12-16T16:19:07.580Z,93.84
2022-12-16T16:21:52.899Z,94.06
2022-12-16T16:24:38.587Z,94.42
2022-12-16T16:27:29.586Z,94.74
2022-12-16T16:30:15.849Z,95.03
2022-12-16T16:33:01.542Z,95.55
2022-12-16T16:35:47.635Z,95.30
2022-12-16T16:38:33.160Z,96.08
2022-12-16T16:41:21.227Z,95.97
2022-12-16T16:44:07.422Z,96.41
2022-12-16T16:47:00.474Z,96.28
2022-12-16T16:49:56.250Z,96.43
2022-12-16T16:52:43.584Z,96.24
2022-12-16T16:55:34.747Z,96.46
2022-12-16T16:58:25.110Z,96.54
2022-12-16T17:01:10.826Z,96.61
2022-12-16T17:03:56.191Z,96.21
2022-12-16T17:06:41.759Z,95.43
2022-12-16T17:09:27.449Z,95.72
2022-12-16T17:12:13.257Z,95.78
2022-12-16T17:14:58.697Z,95.60
2022-12-16T17:17:44.295Z,95.67
2022-12-16T17:20:34.541Z,95.87
2022-12-16T17:23:20.211Z,96.12
2022-12-16T17:26:05.643Z,96.23
2022-12-16T17:28:50.957Z,96.72
2022-12-16T17:31:36.690Z,96.52
2022-12-16T17:34:21.941Z,96.70
2022-12-16T17:37:07.805Z,97.07
2022-12-16T17:39:53.415Z,98.03
2022-12-16T17:42:43.216Z,97.90
2022-12-16T17:45:31.898Z,97.90
2022-12-16T17:48:17.199Z,98.10
2022-12-16T17:51:02.621Z,97.94
2022-12-16T17:53:51.717Z,98.03
2022-12-16T17:56:40.080Z,98.75
2022-12-16T17:59:25.615Z,98.33
2022-12-16T18:02:11.235Z,98.38
2022-12-16T18:04:56.764Z,98.50
2022-12-16T18:07:42.102Z,98.99
2022-12-16T18:10:27.841Z,98.69
2022-12-16T18:13:15.085Z,99.36
2022-12-16T18:16:00.637Z,99.52
2022-12-16T18:18:46.528Z,99.26
2022-12-16T18:21:32.952Z,99.44
2022-12-16T18:24:18.630Z,99.72
2022-12-16T18:27:04.255Z,99.68
2022-12-16T18:29:49.462Z,100.00
2022-12-16T18:32:35.434Z,99.75
2022-12-16T18:35:21.385Z,100.00
2022-12-16T18:38:07.005Z,100.00
2022-12-16T18:40:52.664Z,100.00
2022-12-16T18:43:38.191Z,100.00
2022-12-16T18:46:23.732Z,100.00
2022-12-16T18:49:09.463Z,100.00
2022-12-16T18:51:54.987Z,100.00
2022-12-16T18:54:40.473Z,100.00
2022-12-16T18:57:25.775Z,100.00
2022-12-16T19:00:11.356Z,100.00
2022-12-16T19:02:57.007Z,100.00
2022-12-16T19:05:42.303Z,100.00
2022-12-16T19:08:28.093Z,100.00
2022-12-16T19:11:17.168Z,100.00
2022-12-16T19:14:02.911Z,100.00
2022-12-16T19:16:48.585Z,100.00
2022-12-16T19:19:34.197Z,100.00
2022-12-16T19:22:20.036Z,100.00
2022-12-16T19:25:05.138Z,100.00
2022-12-16T19:27:50.795Z,100.00
2022-12-16T19:30:36.195Z,100.00
2022-12-16T19:33:21.535Z,100.00
2022-12-16T19:36:07.095Z,100.00
2022-12-16T19:38:52.821Z,100.00
2022-12-16T19:41:42.172Z,100.00
2022-12-16T19:44:27.716Z,100.00
2022-12-16T19:47:13.173Z,100.00
2022-12-16T19:49:58.683Z,100.00
2022-12-16T19:52:44.524Z,100.00
2022-12-16T19:55:30.170Z,100.00
2022-12-16T19:58:15.387Z,100.00
2022-12-16T20:01:05.458Z,100.00
2022-12-16T20:03:52.338Z,100.00
2022-12-16T20:06:40.609Z,100.00
2022-12-16T20:09:25.934Z,100.00
2022-12-16T20:12:11.469Z,100.00
2022-12-16T20:14:57.131Z,100.00
2022-12-16T20:17:42.712Z,100.00
2022-12-16T20:20:28.755Z,100.00
2022-12-16T20:23:14.833Z,100.00
2022-12-16T20:26:00.207Z,100.00
2022-12-16T20:28:45.816Z,100.00
2022-12-16T20:31:31.305Z,100.00
2022-12-16T20:34:16.905Z,100.00
2022-12-16T20:37:02.568Z,100.00
2022-12-16T20:39:56.456Z,100.00
2022-12-16T20:42:43.996Z,100.00
2022-12-16T20:45:33.421Z,100.00
2022-12-16T20:48:19.094Z,100.00
2022-12-16T20:51:18.540Z,100.00
2022-12-16T20:54:09.742Z,100.00
2022-12-16T20:56:54.989Z,100.00
2022-12-16T20:59:41.759Z,100.00
2022-12-16T21:05:36.650Z,100.00
2022-12-16T21:08:22.896Z,100.00
2022-12-16T21:11:08.703Z,100.00
2022-12-16T21:16:59.690Z,100.00
2022-12-16T21:19:45.403Z,100.00
2022-12-16T21:22:31.072Z,100.00
2022-12-16T21:25:22.779Z,100.00
2022-12-16T21:28:14.133Z,100.00
2022-12-16T21:30:59.503Z,100.00
2022-12-16T21:33:45.494Z,100.00
2022-12-16T21:36:31.243Z,100.00
2022-12-16T21:39:16.593Z,100.00
2022-12-16T21:42:01.647Z,100.00
2022-12-16T21:44:47.247Z,100.00
2022-12-16T21:47:32.916Z,100.00
2022-12-16T21:50:18.378Z,100.00
2022-12-16T21:53:06.618Z,100.00
2022-12-16T21:55:52.304Z,100.00
2022-12-16T21:58:38.938Z,100.00
2022-12-16T22:01:24.735Z,100.00
2022-12-16T22:04:14.905Z,100.00
2022-12-16T22:07:00.388Z,100.00
2022-12-16T22:09:46.091Z,100.00
2022-12-16T22:12:32.200Z,100.00
2022-12-16T22:15:17.890Z,100.00
2022-12-16T22:18:03.309Z,100.00
2022-12-16T22:20:48.915Z,100.00
2022-12-16T22:23:34.532Z,100.00
2022-12-16T22:26:20.645Z,100.00
2022-12-16T22:29:06.207Z,99.52
2022-12-16T22:31:51.968Z,100.00
2022-12-16T22:34:37.511Z,100.00
2022-12-16T22:37:23.382Z,100.00
2022-12-16T22:40:09.001Z,100.00
2022-12-16T22:42:56.299Z,100.00
2022-12-16T22:45:41.685Z,100.00
2022-12-16T22:48:27.068Z,100.00
2022-12-16T22:51:12.555Z,100.00
2022-12-16T22:53:58.058Z,100.00
2022-12-16T22:56:43.582Z,100.00
2022-12-16T22:59:29.003Z,100.00
2022-12-16T23:02:14.531Z,100.00
2022-12-16T23:05:00.115Z,100.00
2022-12-16T23:07:45.507Z,100.00
2022-12-16T23:10:31.113Z,100.00
2022-12-16T23:13:16.813Z,100.00
2022-12-16T23:16:02.393Z,100.00
2022-12-16T23:18:48.131Z,100.00
2022-12-16T23:21:34.743Z,100.00
2022-12-16T23:24:20.241Z,100.00
2022-12-16T23:27:05.949Z,100.00
2022-12-16T23:29:51.435Z,100.00
2022-12-16T23:32:37.600Z,100.00
2022-12-16T23:35:23.255Z,100.00
2022-12-16T23:38:08.501Z,100.00
2022-12-16T23:40:54.557Z,100.00
2022-12-16T23:43:42.802Z,100.00
2022-12-16T23:46:28.423Z,100.00
2022-12-16T23:49:14.039Z,100.00
2022-12-16T23:51:59.485Z,100.00
2022-12-16T23:54:45.014Z,100.00
2022-12-16T23:57:30.871Z,100.00
